createdAt,value
2018-03-22T00:04:07.241Z,9.6
2018-03-22T00:09:57.885Z,8.02
2018-03-22T00:15:48.482Z,10.47
2018-03-22T00:21:38.963Z,7.8
2018-03-22T00:27:29.584Z,9.32
2018-03-22T00:33:20.116Z,9.33
2018-03-22T00:39:10.776Z,10.43
2018-03-22T00:45:01.301Z,9.2
2018-03-22T00:50:51.916Z,7.22
2018-03-22T00:56:42.418Z,10.3
2018-03-22T01:02:33.051Z,9.02
2018-03-22T01:08:23.600Z,9.55
2018-03-22T01:14:14.277Z,8.58
2018-03-22T01:20:04.793Z,8.65
2018-03-22T01:25:55.409Z,8.65
2018-03-22T01:31:45.940Z,9.87
2018-03-22T01:37:36.495Z,9.82
2018-03-22T01:43:27.043Z,7.37
2018-03-22T01:49:17.630Z,8.23
2018-03-22T01:55:08.217Z,9.47
2018-03-22T02:00:58.848Z,10.61
2018-03-22T02:06:49.344Z,9.15
2018-03-22T02:12:39.977Z,9.61
2018-03-22T02:18:30.536Z,9.83
2018-03-22T02:24:21.114Z,9.51
2018-03-22T02:30:11.685Z,9.39
2018-03-22T02:36:02.296Z,9.47
2018-03-22T02:41:52.866Z,9.21
2018-03-22T02:47:43.511Z,9
2018-03-22T02:53:33.996Z,8.63
2018-03-22T02:59:24.584Z,6.71
2018-03-22T03:05:15.096Z,9.46
2018-03-22T03:11:05.712Z,5.25
2018-03-22T03:16:56.289Z,8.68
2018-03-22T03:22:46.891Z,7.78
2018-03-22T03:28:37.485Z,8.11
2018-03-22T03:34:28.025Z,8.89
2018-03-22T03:40:18.575Z,9.39
2018-03-22T03:46:09.179Z,11.33
2018-03-22T03:51:59.715Z,10.34
2018-03-22T03:57:50.281Z,9.8
2018-03-22T04:03:40.882Z,10.69
2018-03-22T04:09:31.517Z,8.65
2018-03-22T04:15:22.028Z,8.87
2018-03-22T04:21:12.618Z,9.41
2018-03-22T04:27:03.189Z,10.1
2018-03-22T04:32:53.768Z,10.05
2018-03-22T04:38:44.392Z,8.64
2018-03-22T04:44:34.974Z,9.77
2018-03-22T04:50:25.492Z,10.41
2018-03-22T04:56:16.063Z,9.6
2018-03-22T05:02:06.669Z,9.08
2018-03-22T05:07:57.248Z,9.95
2018-03-22T05:13:47.835Z,9.34
2018-03-22T05:19:38.398Z,9.43
2018-03-22T05:25:28.944Z,8.45
2018-03-22T05:31:19.620Z,8.76
2018-03-22T05:37:10.129Z,10.41
2018-03-22T05:43:00.855Z,11.6
2018-03-22T05:48:51.274Z,9.95
2018-03-22T05:54:41.926Z,10.67
2018-03-22T06:00:32.526Z,9.79
2018-03-22T06:06:23.050Z,9.67
2018-03-22T06:12:13.586Z,9.57
2018-03-22T06:18:04.203Z,8.61
2018-03-22T06:23:54.774Z,7.58
2018-03-22T06:29:45.372Z,7.46
2018-03-22T06:35:35.972Z,8.3
2018-03-22T06:41:26.635Z,8.68
2018-03-22T06:47:17.285Z,6
2018-03-22T06:53:07.861Z,8.28
2018-03-22T06:58:58.506Z,8
2018-03-22T07:04:49.151Z,7.96
2018-03-22T07:10:39.721Z,6.93
2018-03-22T07:16:30.417Z,6.72
2018-03-22T07:22:21.028Z,7.93
2018-03-22T07:28:11.580Z,6.06
2018-03-22T07:34:02.203Z,7.05
2018-03-22T07:39:52.852Z,5.53
2018-03-22T07:45:43.431Z,7.22
2018-03-22T07:51:34.080Z,7.05
2018-03-22T07:57:24.656Z,6.75
2018-03-22T08:03:15.265Z,5.1
2018-03-22T08:09:05.924Z,5.45
2018-03-22T08:14:56.588Z,6.41
2018-03-22T08:20:47.195Z,6.57
2018-03-22T08:26:37.860Z,6.85
2018-03-22T08:32:28.457Z,4.62
2018-03-22T08:38:19.074Z,7.62
2018-03-22T08:44:09.660Z,4.9
2018-03-22T08:50:00.226Z,6.93
2018-03-22T08:55:50.818Z,5.56
2018-03-22T09:01:41.491Z,5.42
2018-03-22T09:07:32.012Z,6.49
2018-03-22T09:13:22.656Z,6.32
2018-03-22T09:19:13.325Z,5.67
2018-03-22T09:25:03.918Z,5.82
2018-03-22T09:30:54.444Z,6.29
2018-03-22T09:36:45.078Z,4.95
2018-03-22T09:42:35.713Z,6.1
2018-03-22T09:48:26.327Z,6.3
2018-03-22T09:54:16.966Z,5.49
2018-03-22T10:00:07.479Z,6.16
2018-03-22T10:05:58.105Z,5.56
2018-03-22T10:11:48.737Z,6.23
2018-03-22T10:17:39.316Z,4.74
2018-03-22T10:23:29.955Z,7.21
2018-03-22T10:29:20.605Z,5.92
2018-03-22T10:35:11.255Z,5.49
2018-03-22T10:41:01.840Z,7.08
2018-03-22T10:46:52.542Z,5.4
2018-03-22T10:52:43.077Z,7.04
2018-03-22T10:58:33.726Z,6.95
2018-03-22T11:04:24.354Z,7.75
2018-03-22T11:10:15.008Z,6.16
2018-03-22T11:16:05.660Z,6.39
2018-03-22T11:21:56.289Z,4.24
2018-03-22T11:27:46.838Z,6.99
2018-03-22T11:33:37.488Z,5.71
2018-03-22T11:39:28.126Z,6.94
2018-03-22T11:45:18.816Z,6.34
2018-03-22T11:51:09.443Z,8.18
2018-03-22T11:57:00.042Z,6.09
2018-03-22T12:02:50.698Z,7.11
2018-03-22T12:08:41.337Z,8.92
2018-03-22T12:14:31.976Z,8.26
2018-03-22T12:20:22.610Z,10.35
2018-03-22T12:26:13.226Z,6.96
2018-03-22T12:32:03.849Z,6.89
2018-03-22T12:37:54.527Z,7.57
2018-03-22T12:43:45.174Z,10.65
2018-03-22T12:49:35.756Z,7.37
2018-03-22T12:55:26.406Z,7.71
2018-03-22T13:01:17.051Z,7.05
2018-03-22T13:07:07.717Z,7.03
2018-03-22T13:12:58.293Z,7.49
2018-03-22T13:18:48.899Z,7.76
2018-03-22T13:24:39.499Z,7.46
2018-03-22T13:30:30.184Z,4.92
2018-03-22T13:36:20.825Z,6.91
2018-03-22T13:42:11.437Z,8.01
2018-03-22T13:48:02.042Z,5.86
2018-03-22T13:53:52.645Z,5.18
2018-03-22T13:59:43.252Z,13.83
2018-03-22T14:05:33.901Z,5.79
2018-03-22T14:11:24.537Z,4.09
2018-03-22T14:17:15.140Z,5.01
2018-03-22T14:23:05.734Z,4.1
2018-03-22T14:28:56.382Z,4.91
2018-03-22T14:34:47.019Z,4.6
2018-03-22T14:40:37.636Z,3.92
2018-03-22T14:46:28.232Z,3.58
2018-03-22T14:52:18.860Z,4.22
2018-03-22T14:58:09.476Z,5.16
2018-03-22T15:04:00.118Z,4.18
2018-03-22T15:09:50.727Z,4.61
2018-03-22T15:15:41.362Z,5.05
2018-03-22T15:21:31.988Z,5.21
2018-03-22T15:27:22.620Z,5.49
2018-03-22T15:33:13.223Z,3.8
2018-03-22T15:39:03.808Z,5.14
2018-03-22T15:44:54.471Z,5.54
2018-03-22T15:50:45.041Z,7.74
2018-03-22T15:56:35.657Z,4.51
2018-03-22T16:02:26.304Z,12.07
2018-03-22T16:08:16.946Z,6.21
2018-03-22T16:14:07.541Z,6
2018-03-22T16:19:58.226Z,6.34
2018-03-22T16:25:48.739Z,5.85
2018-03-22T16:31:39.386Z,6.41
2018-03-22T16:37:30.062Z,6.08
2018-03-22T16:43:20.642Z,7.3
2018-03-22T16:49:11.249Z,6.86
2018-03-22T16:55:01.893Z,7.12
2018-03-22T17:00:52.508Z,7.28
2018-03-22T17:06:43.159Z,6.67
2018-03-22T17:12:33.752Z,7.58
2018-03-22T17:18:24.357Z,6.64
2018-03-22T17:24:15.003Z,8.05
2018-03-22T17:30:05.625Z,7.82
2018-03-22T17:35:56.179Z,7.17
2018-03-22T17:41:46.805Z,6.58
2018-03-22T17:47:37.431Z,6.95
2018-03-22T17:53:28.037Z,6.87
2018-03-22T17:59:18.652Z,7.49
2018-03-22T18:05:09.259Z,8.77
2018-03-22T18:10:59.933Z,8.8
2018-03-22T18:16:50.511Z,5.94
2018-03-22T18:22:41.121Z,7.34
2018-03-22T18:28:31.716Z,7.41
2018-03-22T18:34:22.335Z,27.59
2018-03-22T18:40:12.910Z,10.5
2018-03-22T18:46:03.535Z,8.93
2018-03-22T18:51:54.126Z,9.83
2018-03-22T18:57:44.796Z,8.48
2018-03-22T19:03:35.346Z,11.11
2018-03-22T19:09:25.996Z,10.24
2018-03-22T19:15:16.589Z,9.12
2018-03-22T19:21:07.176Z,8.01
2018-03-22T19:26:57.772Z,9.01
2018-03-22T19:32:48.350Z,8.11
2018-03-22T19:38:38.953Z,9.68
2018-03-22T19:44:29.552Z,12
2018-03-22T19:50:20.148Z,11.44
2018-03-22T19:56:10.734Z,11.51
2018-03-22T20:02:01.354Z,10.19
2018-03-22T20:07:51.971Z,11.23
2018-03-22T20:13:42.584Z,10.74
2018-03-22T20:19:33.234Z,11.31
2018-03-22T20:25:23.793Z,10.62
2018-03-22T20:31:14.372Z,13.06
2018-03-22T20:37:04.999Z,12.51
2018-03-22T20:42:55.553Z,12.03
2018-03-22T20:48:46.160Z,12.49
2018-03-22T20:54:36.796Z,14.3
2018-03-22T21:00:27.392Z,13.58
2018-03-22T21:06:18.064Z,14.86
2018-03-22T21:12:08.648Z,12.3
2018-03-22T21:17:59.287Z,17.39
2018-03-22T21:23:49.882Z,12.57
2018-03-22T21:29:40.496Z,12.27
2018-03-22T21:35:31.107Z,13.31
2018-03-22T21:41:21.713Z,12.88
2018-03-22T21:47:12.321Z,13.85
2018-03-22T21:53:02.894Z,13.14
2018-03-22T21:58:53.504Z,12.64
2018-03-22T22:04:44.116Z,13.68
2018-03-22T22:10:34.734Z,13.91
2018-03-22T22:16:25.322Z,13.65
2018-03-22T22:22:15.944Z,13.39
2018-03-22T22:28:06.555Z,13.79
2018-03-22T22:33:57.104Z,14.71
2018-03-22T22:39:47.730Z,14.2
2018-03-22T22:45:38.335Z,13.87
2018-03-22T22:51:28.906Z,12.43
2018-03-22T22:57:19.508Z,12.96
2018-03-22T23:03:10.134Z,14.28
2018-03-22T23:09:00.721Z,13.67
2018-03-22T23:14:51.277Z,15.09
2018-03-22T23:20:41.893Z,15.01
2018-03-22T23:26:32.434Z,14.09
2018-03-22T23:32:23.063Z,15.51
2018-03-22T23:38:13.677Z,15.57
2018-03-22T23:44:04.268Z,15.13
2018-03-22T23:49:54.919Z,14.69
2018-03-22T23:55:45.483Z,13.53
